Time;durP1;ratioP1;P1;durP2;ratioP2;P2;SDS_P1;SDS_P2;PMS_P1;PMS_P2;Temp;Humidity;BMP_temperature;BMP_pressure;BME280_temperature;BME280_humidity;BME280_pressure;Samples;Min_cycle;Max_cycle;Signal;HPM_P1;HPM_P2
2021/11/19 00:00:44;;;;;;;24.83;10.90;;;;;;;10.42;100.00;101313.06;7403014;19;20465;-47
2021/11/19 00:03:14;;;;;;;32.97;11.03;;;;;;;10.42;100.00;101321.69;7401199;19;20415;-53
2021/11/19 00:05:46;;;;;;;200.83;63.13;;;;;;;10.52;100.00;101308.47;7403947;19;20691;-51
2021/11/19 00:08:18;;;;;;;163.30;51.50;;;;;;;10.63;100.00;101301.28;7402646;19;20409;-52
2021/11/19 00:10:48;;;;;;;122.27;42.90;;;;;;;10.80;100.00;101290.91;7403450;19;20460;-46
2021/11/19 00:13:17;;;;;;;43.70;18.40;;;;;;;10.66;100.00;101288.53;7401514;19;20968;-48
2021/11/19 00:15:47;;;;;;;39.03;12.13;;;;;;;10.69;100.00;101292.97;7403955;19;20400;-49
2021/11/19 00:18:17;;;;;;;28.13;9.97;;;;;;;10.67;100.00;101273.94;7401562;19;20419;-52
2021/11/19 00:20:49;;;;;;;29.80;12.03;;;;;;;10.74;100.00;101285.44;7402599;19;20388;-53
2021/11/19 00:23:19;;;;;;;26.93;12.53;;;;;;;10.70;100.00;101280.91;7400997;19;20554;-52
2021/11/19 00:25:50;;;;;;;21.63;9.33;;;;;;;10.73;100.00;101294.91;7406675;19;20400;-53
2021/11/19 00:28:20;;;;;;;28.27;10.20;;;;;;;10.64;100.00;101295.31;7401021;19;20496;-49
2021/11/19 00:30:50;;;;;;;29.17;10.17;;;;;;;10.62;100.00;101301.22;7406865;19;20411;-50
2021/11/19 00:33:20;;;;;;;31.40;10.53;;;;;;;10.65;100.00;101291.03;7400552;19;20487;-51
2021/11/19 00:35:52;;;;;;;25.80;9.97;;;;;;;10.60;100.00;101303.69;7403261;19;20907;-48
2021/11/19 00:38:23;;;;;;;22.70;7.90;;;;;;;10.56;100.00;101306.94;7400678;19;20448;-49
2021/11/19 00:41:01;;;;;;;30.20;9.70;;;;;;;10.56;100.00;101306.94;7402339;19;20700;-52
2021/11/19 00:43:31;;;;;;;35.17;9.33;;;;;;;10.59;100.00;101308.78;7400222;19;20486;-47
2021/11/19 00:46:01;;;;;;;25.57;8.00;;;;;;;10.57;100.00;101313.88;7402743;19;20418;-47
2021/11/19 00:48:33;;;;;;;23.30;8.93;;;;;;;10.58;100.00;101302.75;7405184;19;20463;-49
2021/11/19 00:51:07;;;;;;;20.87;8.03;;;;;;;10.60;100.00;101324.34;7397638;19;20472;-51
2021/11/19 00:53:39;;;;;;;20.67;8.17;;;;;;;10.61;100.00;101326.13;7396058;19;20431;-47
2021/11/19 00:56:09;;;;;;;11.70;5.40;;;;;;;10.61;100.00;101318.38;7395992;19;20388;-47
2021/11/19 00:58:38;;;;;;;22.23;7.70;;;;;;;10.65;100.00;101322.88;7402135;19;20391;-46
2021/11/19 01:01:12;;;;;;;16.90;6.90;;;;;;;10.62;100.00;101335.63;7401272;19;20405;-47
2021/11/19 01:03:42;;;;;;;15.17;6.80;;;;;;;10.65;100.00;101348.69;7400527;19;20487;-48
2021/11/19 01:06:14;;;;;;;19.17;6.67;;;;;;;10.64;100.00;101346.94;7402430;19;20451;-47
2021/11/19 01:08:44;;;;;;;17.73;6.40;;;;;;;10.65;100.00;101353.84;7399721;19;20422;-47
2021/11/19 01:11:17;;;;;;;19.60;6.40;;;;;;;10.65;100.00;101369.34;7401155;19;20376;-49
2021/11/19 01:13:48;;;;;;;24.60;8.07;;;;;;;10.67;100.00;101366.84;7398903;19;20445;-52
2021/11/19 01:16:21;;;;;;;25.63;8.17;;;;;;;10.64;100.00;101377.91;7402122;19;20443;-49
2021/11/19 01:18:53;;;;;;;22.43;7.97;;;;;;;10.63;100.00;101383.88;7401503;19;20392;-53
2021/11/19 01:21:28;;;;;;;19.90;7.10;;;;;;;10.66;100.00;101386.59;7401060;19;20400;-46
2021/11/19 01:24:00;;;;;;;18.83;6.70;;;;;;;10.63;100.00;101388.13;7396596;19;20438;-51
2021/11/19 01:26:32;;;;;;;22.03;7.17;;;;;;;10.62;100.00;101384.66;7401815;19;20399;-50
2021/11/19 01:29:03;;;;;;;20.57;6.80;;;;;;;10.62;100.00;101382.06;7397274;19;20770;-47
2021/11/19 01:31:38;;;;;;;20.13;6.90;;;;;;;10.65;100.00;101383.91;7401394;19;20685;-51
2021/11/19 01:34:07;;;;;;;19.90;6.20;;;;;;;10.66;100.00;101375.38;7396431;19;20418;-53
2021/11/19 01:36:40;;;;;;;14.40;5.43;;;;;;;10.64;100.00;101367.56;7401302;19;20388;-46
2021/11/19 01:39:12;;;;;;;15.13;5.50;;;;;;;10.67;100.00;101388.34;7398127;19;20427;-48
2021/11/19 01:41:44;;;;;;;11.10;4.70;;;;;;;10.66;100.00;101391.75;7400779;19;20455;-48
2021/11/19 01:44:18;;;;;;;14.93;5.23;;;;;;;10.69;100.00;101374.66;7399555;19;20487;-50
2021/11/19 01:46:51;;;;;;;12.00;3.97;;;;;;;10.65;100.00;101389.09;7396312;19;20415;-52
2021/11/19 01:49:21;;;;;;;17.73;5.97;;;;;;;10.67;100.00;101382.34;7397363;19;20717;-49
2021/11/19 01:52:05;;;;;;;14.20;5.20;;;;;;;10.70;100.00;101389.31;7398074;19;20487;-48
2021/11/19 01:54:37;;;;;;;26.30;5.40;;;;;;;10.70;100.00;101391.91;7400856;19;20388;-49
2021/11/19 01:57:11;;;;;;;17.80;5.07;;;;;;;10.71;100.00;101401.44;7396096;19;20482;-48
2021/11/19 01:59:43;;;;;;;23.73;4.63;;;;;;;10.75;100.00;101401.66;7399661;19;20384;-48
2021/11/19 02:02:15;;;;;;;16.33;4.87;;;;;;;10.78;100.00;101406.09;7397435;19;20433;-52
2021/11/19 02:04:47;;;;;;;20.93;6.60;;;;;;;10.75;100.00;101396.50;7400495;19;20669;-46
2021/11/19 02:07:22;;;;;;;14.40;4.90;;;;;;;10.74;100.00;101409.31;7401877;19;20942;-48
2021/11/19 02:09:57;;;;;;;10.73;4.33;;;;;;;10.73;100.00;101402.38;7397235;19;20398;-51
2021/11/19 02:12:32;;;;;;;15.17;4.97;;;;;;;10.71;100.00;101410.03;7395038;19;20454;-47
2021/11/19 02:15:10;;;;;;;13.60;4.23;;;;;;;10.74;100.00;101407.63;7394910;19;20384;-49
2021/11/19 02:17:42;;;;;;;12.57;4.17;;;;;;;10.74;100.00;101417.06;7391816;19;20395;-49
2021/11/19 02:20:14;;;;;;;16.80;5.10;;;;;;;10.75;100.00;101414.56;7396881;19;20391;-48
2021/11/19 02:22:53;;;;;;;20.67;5.47;;;;;;;10.73;100.00;101418.78;7399427;19;20457;-49
2021/11/19 02:25:32;;;;;;;9.57;4.17;;;;;;;10.72;100.00;101419.56;7396793;19;20407;-51
2021/11/19 02:28:05;;;;;;;16.27;4.57;;;;;;;10.73;100.00;101410.13;7399003;19;20411;-50
2021/11/19 02:30:39;;;;;;;18.30;4.77;;;;;;;10.73;100.00;101413.63;7398884;19;20688;-47
2021/11/19 02:33:11;;;;;;;13.10;5.07;;;;;;;10.76;100.00;101420.59;7398336;19;20470;-46
2021/11/19 02:35:45;;;;;;;21.70;4.67;;;;;;;10.77;100.00;101404.34;7396595;19;20411;-46
2021/11/19 02:38:19;;;;;;;15.33;4.50;;;;;;;10.73;100.00;101412.72;7399070;19;20404;-48
2021/11/19 02:40:51;;;;;;;17.53;5.97;;;;;;;10.75;100.00;101416.25;7395218;19;20900;-47
2021/11/19 02:43:24;;;;;;;18.07;4.80;;;;;;;10.74;100.00;101414.47;7397431;19;20503;-47
2021/11/19 02:45:55;;;;;;;14.40;4.90;;;;;;;10.74;100.00;101411.91;7396921;19;20474;-49
2021/11/19 02:48:27;;;;;;;15.33;4.90;;;;;;;10.77;100.00;101415.53;7397657;19;20858;-51
2021/11/19 02:50:58;;;;;;;19.57;5.53;;;;;;;10.71;100.00;101419.50;7395142;19;20421;-49
2021/11/19 02:53:31;;;;;;;13.77;4.60;;;;;;;10.72;100.00;101416.09;7397286;19;20471;-53
2021/11/19 02:56:01;;;;;;;19.60;5.17;;;;;;;10.76;100.00;101412.84;7396346;19;20491;-50
2021/11/19 02:58:33;;;;;;;17.40;4.60;;;;;;;10.71;100.00;101409.19;7399013;19;20396;-52
2021/11/19 03:01:19;;;;;;;21.13;5.50;;;;;;;10.74;100.00;101411.91;7398965;19;20478;-50
2021/11/19 03:03:52;;;;;;;16.40;4.67;;;;;;;10.74;100.00;101404.16;7403653;19;20495;-46
2021/11/19 03:06:22;;;;;;;21.13;5.07;;;;;;;10.73;100.00;101412.72;7403574;19;20470;-45
2021/11/19 03:08:54;;;;;;;17.50;5.70;;;;;;;10.71;100.00;101419.50;7405726;19;20446;-52
2021/11/19 03:11:23;;;;;;;14.60;4.20;;;;;;;10.72;100.00;101418.69;7402067;19;20419;-53
2021/11/19 03:13:53;;;;;;;17.93;4.60;;;;;;;10.74;100.00;101438.63;7405118;19;20874;-51
2021/11/19 03:16:23;;;;;;;14.43;5.27;;;;;;;10.78;100.00;101426.75;7403282;19;20430;-53
2021/11/19 03:18:52;;;;;;;23.60;4.83;;;;;;;10.77;100.00;101430.16;7405514;19;20455;-50
2021/11/19 03:21:23;;;;;;;15.53;4.83;;;;;;;10.76;100.00;101428.34;7402673;19;20422;-53
2021/11/19 03:23:57;;;;;;;11.67;4.53;;;;;;;10.72;100.00;101434.19;7403271;19;20491;-53
2021/11/19 03:26:27;;;;;;;17.23;4.83;;;;;;;10.73;100.00;101434.25;7402733;19;20869;-52
2021/11/19 03:28:56;;;;;;;15.93;4.33;;;;;;;10.75;100.00;101439.47;7404249;19;20414;-53
2021/11/19 03:31:26;;;;;;;15.20;3.80;;;;;;;10.72;100.00;101447.09;7402160;19;20573;-48
2021/11/19 03:33:56;;;;;;;19.67;4.63;;;;;;;10.73;100.00;101441.09;7402494;19;20419;-53
2021/11/19 03:36:27;;;;;;;13.33;5.30;;;;;;;10.73;100.00;101443.69;7402563;19;20414;-49
2021/11/19 03:39:02;;;;;;;16.23;5.07;;;;;;;10.76;100.00;101456.75;7404340;19;20459;-51
2021/11/19 03:41:34;;;;;;;13.93;5.10;;;;;;;10.71;100.00;101440.16;7402502;19;20422;-50
2021/11/19 03:44:07;;;;;;;21.27;5.97;;;;;;;10.72;100.00;101436.75;7402697;19;20491;-52
2021/11/19 03:46:39;;;;;;;22.53;5.30;;;;;;;10.69;100.00;101452.06;7402318;19;20482;-52
2021/11/19 03:49:08;;;;;;;18.23;5.23;;;;;;;10.73;100.00;101433.38;7404161;19;20407;-51
2021/11/19 03:51:41;;;;;;;15.67;4.43;;;;;;;10.67;100.00;101439.09;7401891;19;20454;-53
2021/11/19 03:54:13;;;;;;;8.93;3.90;;;;;;;10.70;100.00;101433.19;7402455;19;20416;-50
2021/11/19 03:56:43;;;;;;;14.83;3.90;;;;;;;10.67;100.00;101434.81;7402229;19;20415;-48
2021/11/19 03:59:13;;;;;;;15.23;4.50;;;;;;;10.70;100.00;101438.34;7403668;19;20390;-46
2021/11/19 04:01:45;;;;;;;21.80;5.00;;;;;;;10.70;100.00;101434.09;7401579;19;20490;-48
2021/11/19 04:04:16;;;;;;;17.97;4.60;;;;;;;10.69;100.00;101444.31;7401715;19;20515;-47
2021/11/19 04:06:46;;;;;;;21.50;5.80;;;;;;;10.72;100.00;101436.75;7403338;19;20958;-48
2021/11/19 04:09:18;;;;;;;25.13;5.13;;;;;;;10.71;100.00;101435.84;7403280;19;20421;-51
2021/11/19 04:11:48;;;;;;;11.93;3.50;;;;;;;10.68;100.00;101435.72;7399638;19;20909;-47
2021/11/19 04:14:18;;;;;;;20.83;5.10;;;;;;;10.72;100.00;101444.50;7401419;19;20475;-46
2021/11/19 04:16:50;;;;;;;21.60;4.90;;;;;;;10.73;100.00;101446.28;7401280;19;20425;-51
2021/11/19 04:19:21;;;;;;;15.40;4.30;;;;;;;10.72;100.00;101447.94;7403640;19;20392;-47
2021/11/19 04:21:53;;;;;;;16.50;4.67;;;;;;;10.73;100.00;101465.25;7400958;19;20482;-46
2021/11/19 04:24:28;;;;;;;14.73;4.17;;;;;;;10.72;100.00;101462.56;7401183;19;20439;-46
2021/11/19 04:26:58;;;;;;;13.03;4.00;;;;;;;10.73;100.00;101465.25;7401400;19;20418;-45
2021/11/19 04:29:31;;;;;;;15.70;4.47;;;;;;;10.74;100.00;101456.69;7402131;19;20399;-47
2021/11/19 04:32:00;;;;;;;29.63;4.37;;;;;;;10.75;100.00;101457.56;7397307;19;20415;-46
2021/11/19 04:34:31;;;;;;;11.70;4.77;;;;;;;10.73;100.00;101469.50;7403641;19;20520;-48
2021/11/19 04:37:01;;;;;;;24.90;4.43;;;;;;;10.71;100.00;101473.69;7400904;19;20756;-47
2021/11/19 04:39:33;;;;;;;18.40;5.47;;;;;;;10.72;100.00;101480.63;7402184;19;20386;-49
2021/11/19 04:42:03;;;;;;;15.20;4.97;;;;;;;10.71;100.00;101482.31;7400727;19;20422;-48
2021/11/19 04:44:33;;;;;;;16.80;5.00;;;;;;;10.71;100.00;101481.44;7401376;19;20409;-48
2021/11/19 04:47:02;;;;;;;14.57;4.77;;;;;;;10.71;100.00;101481.44;7400724;19;20877;-47
2021/11/19 04:49:34;;;;;;;16.50;5.63;;;;;;;10.70;100.00;101488.28;7403456;19;20706;-46
2021/11/19 04:52:05;;;;;;;18.27;4.90;;;;;;;10.71;100.00;101492.63;7400566;19;20436;-46
2021/11/19 04:54:38;;;;;;;13.03;3.30;;;;;;;10.66;100.00;101494.09;7402615;19;20416;-48
2021/11/19 04:57:09;;;;;;;16.07;5.13;;;;;;;10.69;100.00;101483.03;7400498;19;20411;-46
2021/11/19 04:59:39;;;;;;;21.57;5.27;;;;;;;10.71;100.00;101486.59;7401446;19;20871;-48
2021/11/19 05:02:13;;;;;;;10.53;4.90;;;;;;;10.66;100.00;101496.66;7399217;19;20407;-49
2021/11/19 05:04:43;;;;;;;24.03;5.80;;;;;;;10.67;100.00;101485.56;7400837;19;20411;-46
2021/11/19 05:07:13;;;;;;;18.77;4.70;;;;;;;10.66;100.00;101494.97;7399639;19;20482;-47
2021/11/19 05:09:46;;;;;;;16.50;4.97;;;;;;;10.63;100.00;101474.19;7401112;19;20395;-48
2021/11/19 05:12:19;;;;;;;19.43;5.80;;;;;;;10.62;100.00;101498.19;7399325;19;20415;-51
2021/11/19 05:14:49;;;;;;;17.43;5.40;;;;;;;10.65;100.00;101487.16;7401669;19;20703;-46
2021/11/19 05:17:22;;;;;;;18.33;5.67;;;;;;;10.65;100.00;101484.56;7403681;19;20427;-47
2021/11/19 05:19:51;;;;;;;20.17;6.07;;;;;;;10.65;100.00;101477.72;7400665;19;20413;-49
2021/11/19 05:22:21;;;;;;;15.77;4.50;;;;;;;10.62;100.00;101481.84;7398382;19;20428;-48
2021/11/19 05:24:54;;;;;;;19.73;5.93;;;;;;;10.59;100.00;101479.97;7398734;19;20389;-46
2021/11/19 05:27:23;;;;;;;22.60;5.43;;;;;;;10.63;100.00;101478.44;7399184;19;20480;-47
2021/11/19 05:29:52;;;;;;;22.43;5.40;;;;;;;10.64;100.00;101473.38;7400209;19;20459;-47
2021/11/19 05:32:23;;;;;;;22.33;5.87;;;;;;;10.66;100.00;101474.34;7398356;19;20932;-49
2021/11/19 05:34:52;;;;;;;17.80;4.17;;;;;;;10.64;100.00;101465.63;7405244;19;20670;-46
2021/11/19 05:37:22;;;;;;;17.13;6.30;;;;;;;10.68;100.00;101474.44;7398921;19;20484;-49
2021/11/19 05:39:54;;;;;;;21.73;6.20;;;;;;;10.71;100.00;101466.81;7400150;19;20463;-53
2021/11/19 05:42:23;;;;;;;22.77;5.97;;;;;;;10.71;100.00;101477.16;7398040;19;20403;-48
2021/11/19 05:44:53;;;;;;;22.40;5.50;;;;;;;10.66;100.00;101463.13;7399614;19;20396;-47
2021/11/19 05:47:23;;;;;;;21.20;5.67;;;;;;;10.69;100.00;101462.38;7397712;19;20694;-47
2021/11/19 05:49:53;;;;;;;23.83;6.87;;;;;;;10.69;100.00;101477.88;7399688;19;20463;-48
2021/11/19 05:52:22;;;;;;;11.73;3.60;;;;;;;10.69;100.00;101472.72;7402460;19;20515;-52
2021/11/19 05:54:54;;;;;;;23.90;5.57;;;;;;;10.71;100.00;101471.13;7400447;19;20402;-48
2021/11/19 05:57:25;;;;;;;8.00;3.40;;;;;;;10.66;100.00;101473.44;7397638;19;20423;-53
2021/11/19 05:59:54;;;;;;;11.63;3.87;;;;;;;10.67;100.00;101475.25;7399633;19;20388;-47
2021/11/19 06:02:24;;;;;;;18.17;4.33;;;;;;;10.66;100.00;101458.84;7396854;19;20413;-48
2021/11/19 06:04:54;;;;;;;5.67;3.10;;;;;;;10.65;100.00;101485.47;7402492;19;20403;-50
2021/11/19 06:07:25;;;;;;;18.27;4.77;;;;;;;10.67;100.00;101473.53;7398007;19;20470;-51
2021/11/19 06:09:58;;;;;;;22.77;5.93;;;;;;;10.69;100.00;101483.03;7400124;19;20396;-48
2021/11/19 06:12:34;;;;;;;33.50;6.33;;;;;;;10.71;100.00;101484.03;7398945;19;20429;-50
2021/11/19 06:15:08;;;;;;;19.20;5.20;;;;;;;10.71;100.00;101487.47;7397700;19;20416;-46
2021/11/19 06:17:39;;;;;;;24.43;5.27;;;;;;;10.70;100.00;101484.81;7399102;19;20454;-51
2021/11/19 06:20:14;;;;;;;24.47;4.93;;;;;;;10.71;100.00;101490.06;7397106;19;20856;-52
2021/11/19 06:22:47;;;;;;;20.30;4.87;;;;;;;10.70;100.00;101496.03;7398741;19;20411;-50
2021/11/19 06:25:23;;;;;;;13.60;3.97;;;;;;;10.68;100.00;101502.81;7396668;19;20664;-50
2021/11/19 06:27:54;;;;;;;15.90;4.10;;;;;;;10.70;100.00;101495.13;7399097;19;20397;-49
2021/11/19 06:30:25;;;;;;;35.90;5.70;;;;;;;10.70;100.00;101500.28;7395377;19;20407;-50
2021/11/19 06:32:55;;;;;;;19.20;5.00;;;;;;;10.71;100.00;101500.38;7399857;19;20491;-51
2021/11/19 06:35:24;;;;;;;14.47;4.63;;;;;;;10.70;100.00;101505.44;7395929;19;20443;-50
2021/11/19 06:37:54;;;;;;;17.07;4.63;;;;;;;10.67;100.00;101504.50;7398895;19;20436;-48
2021/11/19 06:40:29;;;;;;;31.47;5.10;;;;;;;10.70;100.00;101500.28;7395484;19;20407;-49
2021/11/19 06:43:00;;;;;;;21.80;4.77;;;;;;;10.68;100.00;101497.66;7398241;19;20463;-51
2021/11/19 06:45:30;;;;;;;18.23;4.80;;;;;;;10.71;100.00;101502.97;7395748;19;20681;-46
2021/11/19 06:48:03;;;;;;;21.43;6.03;;;;;;;10.75;100.00;101504.00;7401849;19;20404;-53
2021/11/19 06:50:34;;;;;;;20.83;6.10;;;;;;;10.73;100.00;101505.63;7388926;19;20941;-51
2021/11/19 06:53:03;;;;;;;15.00;4.10;;;;;;;10.70;100.00;101503.78;7397988;19;20423;-53
2021/11/19 06:55:36;;;;;;;15.17;4.93;;;;;;;10.71;100.00;101512.41;7395379;19;20399;-53
2021/11/19 06:58:07;;;;;;;23.73;5.40;;;;;;;10.70;100.00;101501.19;7398725;19;20397;-52
2021/11/19 07:00:40;;;;;;;13.10;3.60;;;;;;;10.71;100.00;101507.25;7395974;19;20487;-49
2021/11/19 07:03:10;;;;;;;24.67;5.40;;;;;;;10.71;100.00;101507.25;7397565;19;20412;-53
2021/11/19 07:05:41;;;;;;;21.33;4.60;;;;;;;10.69;100.00;101512.31;7395018;19;20427;-51
2021/11/19 07:08:12;;;;;;;12.73;4.00;;;;;;;10.69;100.00;101507.16;7398333;19;20388;-48
2021/11/19 07:10:47;;;;;;;12.80;4.53;;;;;;;10.67;100.00;101509.66;7395499;19;20907;-51
2021/11/19 07:13:16;;;;;;;25.93;6.00;;;;;;;10.72;100.00;101516.78;7397231;19;20414;-53
2021/11/19 07:15:46;;;;;;;20.53;5.17;;;;;;;10.77;100.00;101515.31;7396307;19;20896;-53
2021/11/19 07:18:16;;;;;;;16.10;5.23;;;;;;;10.73;100.00;101519.44;7398230;19;20408;-53
2021/11/19 07:20:47;;;;;;;14.40;3.90;;;;;;;10.73;100.00;101522.03;7394876;19;20467;-50
2021/11/19 07:23:16;;;;;;;30.73;6.73;;;;;;;10.73;100.00;101523.69;7396535;19;20702;-45
2021/11/19 07:25:49;;;;;;;12.20;4.70;;;;;;;10.71;100.00;101531.34;7394860;19;20479;-45
2021/11/19 07:28:19;;;;;;;17.93;5.40;;;;;;;10.74;100.00;101531.53;7397318;19;20413;-48
2021/11/19 07:30:52;;;;;;;15.63;4.20;;;;;;;10.71;100.00;101543.38;7394788;19;20483;-50
2021/11/19 07:33:23;;;;;;;13.57;5.27;;;;;;;10.73;100.00;101539.19;7396330;19;20471;-46
2021/11/19 07:35:54;;;;;;;12.03;4.43;;;;;;;10.71;100.00;101536.50;7394950;19;20412;-46
2021/11/19 07:38:25;;;;;;;22.00;6.00;;;;;;;10.70;100.00;101534.75;7396798;19;20573;-50
2021/11/19 07:40:58;;;;;;;11.17;3.27;;;;;;;10.69;100.00;101542.41;7396571;19;20766;-50
2021/11/19 07:43:30;;;;;;;14.53;4.90;;;;;;;10.69;100.00;101540.72;7396188;19;20444;-45
2021/11/19 07:46:00;;;;;;;10.93;4.40;;;;;;;10.67;100.00;101538.03;7393028;19;20418;-45
2021/11/19 07:48:32;;;;;;;20.90;5.90;;;;;;;10.71;100.00;101538.22;7404443;19;20417;-45
2021/11/19 07:51:03;;;;;;;16.00;6.03;;;;;;;10.66;100.00;101546.59;7401916;19;20411;-47
2021/11/19 07:53:33;;;;;;;19.53;5.33;;;;;;;10.66;100.00;101546.59;7403278;19;20925;-46
2021/11/19 07:56:06;;;;;;;8.40;4.93;;;;;;;10.66;100.00;101535.38;7402224;19;20451;-43
2021/11/19 07:58:37;;;;;;;19.20;5.20;;;;;;;10.70;100.00;101547.66;7404362;19;20519;-47
2021/11/19 08:01:08;;;;;;;23.00;6.37;;;;;;;10.71;100.00;101541.69;7401305;19;20873;-45
2021/11/19 08:03:42;;;;;;;17.27;7.07;;;;;;;10.66;100.00;101544.03;7401958;19;20422;-44
2021/11/19 08:06:12;;;;;;;24.90;6.43;;;;;;;10.72;100.00;101548.59;7402414;19;20475;-47
2021/11/19 08:08:42;;;;;;;15.13;6.03;;;;;;;10.73;100.00;101545.25;7403949;19;20390;-45
2021/11/19 08:11:16;;;;;;;24.97;7.10;;;;;;;10.74;100.00;101551.28;7400567;19;20418;-45
2021/11/19 08:13:46;;;;;;;22.97;7.50;;;;;;;10.73;100.00;101541.75;7402084;19;20411;-49
2021/11/19 08:16:16;;;;;;;16.77;6.13;;;;;;;10.70;100.00;101541.59;7401176;19;20500;-48
2021/11/19 08:18:49;;;;;;;24.70;7.53;;;;;;;10.73;100.00;101552.09;7403673;19;20408;-50
2021/11/19 08:21:18;;;;;;;26.63;6.87;;;;;;;10.74;100.00;101551.28;7400968;19;20408;-50
2021/11/19 08:23:50;;;;;;;14.27;6.67;;;;;;;10.74;100.00;101557.34;7401473;19;20725;-46
2021/11/19 08:26:28;;;;;;;16.30;6.00;;;;;;;10.75;100.00;101550.47;7401470;19;20445;-47
2021/11/19 08:28:57;;;;;;;18.23;7.60;;;;;;;10.77;100.00;101556.63;7402293;19;20384;-44
2021/11/19 08:31:29;;;;;;;25.33;8.70;;;;;;;10.75;100.00;101560.78;7400816;19;20423;-47
2021/11/19 08:33:58;;;;;;;23.37;8.87;;;;;;;10.80;100.00;101561.94;7401405;19;20427;-48
2021/11/19 08:36:29;;;;;;;22.80;8.57;;;;;;;10.80;100.00;101556.78;7400898;19;20431;-46
2021/11/19 08:38:59;;;;;;;15.60;7.07;;;;;;;10.79;100.00;101553.31;7402220;19;20377;-46
2021/11/19 08:41:31;;;;;;;21.33;8.40;;;;;;;10.85;100.00;101554.44;7400703;19;20475;-46
2021/11/19 08:44:02;;;;;;;17.40;7.20;;;;;;;10.82;100.00;101547.41;7400641;19;20437;-46
2021/11/19 08:46:38;;;;;;;18.40;7.73;;;;;;;10.85;100.00;101542.41;7399279;19;20510;-49
2021/11/19 08:49:19;;;;;;;23.97;8.83;;;;;;;10.89;100.00;101558.97;7402138;19;20690;-47
2021/11/19 08:51:49;;;;;;;23.90;7.87;;;;;;;10.89;100.00;101541.78;7398966;19;20411;-47
2021/11/19 08:54:18;;;;;;;23.70;8.13;;;;;;;10.89;100.00;101565.03;7403976;19;20488;-47
2021/11/19 08:56:53;;;;;;;17.63;8.10;;;;;;;10.90;100.00;101556.47;7400196;19;20957;-46
2021/11/19 08:59:25;;;;;;;19.77;6.10;;;;;;;10.89;100.00;101564.13;7402197;19;20403;-46
2021/11/19 09:01:58;;;;;;;27.77;8.03;;;;;;;10.94;100.00;101536.88;7400140;19;20929;-44
2021/11/19 09:04:46;;;;;;;12.60;7.03;;;;;;;10.94;100.00;101553.22;7402194;19;20388;-45
2021/11/19 09:07:17;;;;;;;17.93;5.83;;;;;;;10.96;100.00;101558.47;7398462;19;20721;-44
2021/11/19 09:09:47;;;;;;;18.90;5.03;;;;;;;10.93;100.00;101569.53;7402818;19;20922;-46
2021/11/19 09:12:20;;;;;;;15.87;6.90;;;;;;;10.97;100.00;101567.13;7399229;19;20400;-47
2021/11/19 09:14:49;;;;;;;12.20;6.33;;;;;;;10.93;100.00;101566.06;7401855;19;20458;-47
2021/11/19 09:17:39;;;;;;;14.87;4.67;;;;;;;10.94;100.00;101560.09;7399335;19;20887;-45
2021/11/19 09:20:16;;;;;;;15.13;6.87;;;;;;;10.99;100.00;101565.50;7399040;19;20392;-49
2021/11/19 09:23:01;;;;;;;25.23;7.57;;;;;;;10.99;100.00;101566.41;7400731;19;20415;-50
2021/11/19 09:25:32;;;;;;;12.60;7.83;;;;;;;11.01;100.00;101571.63;7398960;19;20407;-52
2021/11/19 09:28:04;;;;;;;18.70;6.77;;;;;;;11.02;100.00;101570.84;7400996;19;20463;-49
2021/11/19 09:30:39;;;;;;;16.33;7.77;;;;;;;10.99;100.00;101578.41;7398075;19;20403;-43
2021/11/19 09:33:12;;;;;;;16.67;7.03;;;;;;;11.00;100.00;101587.94;7399855;19;20432;-46
2021/11/19 09:35:42;;;;;;;12.33;6.40;;;;;;;11.00;100.00;101577.59;7398728;19;20411;-49
2021/11/19 09:38:15;;;;;;;17.27;7.10;;;;;;;11.01;100.00;101589.69;7401002;19;20398;-47
2021/11/19 09:40:52;;;;;;;13.60;5.53;;;;;;;11.03;100.00;101582.94;7397823;19;20479;-44
2021/11/19 09:43:34;;;;;;;13.80;7.07;;;;;;;11.04;100.00;101584.72;7399576;19;20417;-51
2021/11/19 09:46:30;;;;;;;14.33;7.17;;;;;;;11.04;100.00;101584.72;7398421;19;20439;-47
2021/11/19 09:49:13;;;;;;;16.63;7.43;;;;;;;11.06;100.00;101573.66;7402541;19;20413;-47
2021/11/19 09:52:16;;;;;;;15.27;5.30;;;;;;;11.01;100.00;101580.28;7398037;19;20412;-51
2021/11/19 09:55:12;;;;;;;15.63;6.40;;;;;;;11.03;100.00;101588.09;7400704;19;20453;-49
2021/11/19 09:58:19;;;;;;;15.83;6.83;;;;;;;11.05;100.00;101586.47;7400275;19;20499;-45
2021/11/19 10:01:02;;;;;;;20.20;6.00;;;;;;;11.06;100.00;101591.75;7397369;19;20409;-50
2021/11/19 10:03:49;;;;;;;13.07;6.90;;;;;;;11.00;100.00;101593.09;7403286;19;20427;-44
2021/11/19 10:06:24;;;;;;;24.60;7.60;;;;;;;10.99;100.00;101586.16;7396286;19;20445;-46
2021/11/19 10:08:57;;;;;;;16.57;7.00;;;;;;;11.03;100.00;101588.09;7401074;19;20399;-49
2021/11/19 10:11:34;;;;;;;18.30;7.17;;;;;;;11.05;100.00;101583.91;7398263;19;20438;-47
2021/11/19 10:14:16;;;;;;;13.60;6.53;;;;;;;11.05;100.00;101594.22;7398722;19;20487;-49
2021/11/19 10:17:06;;;;;;;17.23;6.90;;;;;;;11.07;100.00;101587.44;7397194;19;20428;-51
2021/11/19 10:19:40;;;;;;;10.90;5.13;;;;;;;11.03;100.00;101582.94;7398363;19;20394;-47
2021/11/19 10:22:23;;;;;;;13.33;5.90;;;;;;;11.07;100.00;101584.84;7398543;19;20433;-52
2021/11/19 10:24:58;;;;;;;11.57;5.90;;;;;;;11.08;100.00;101576.34;7399316;19;20387;-52
2021/11/19 10:27:31;;;;;;;16.80;6.10;;;;;;;11.07;100.00;101580.59;7397894;19;20441;-52
2021/11/19 10:30:04;;;;;;;14.60;6.90;;;;;;;11.10;100.00;101587.63;7398417;19;20444;-51
2021/11/19 10:32:37;;;;;;;13.43;7.43;;;;;;;11.11;100.00;101584.22;7397955;19;20482;-53
2021/11/19 10:35:20;;;;;;;10.27;6.23;;;;;;;11.07;100.00;101582.28;7395957;19;20448;-51
2021/11/19 10:38:19;;;;;;;17.00;6.20;;;;;;;11.10;100.00;101591.88;7399625;19;20417;-50
2021/11/19 10:41:27;;;;;;;16.17;7.80;;;;;;;11.12;100.00;101587.72;7397494;19;20721;-50
2021/11/19 10:44:21;;;;;;;20.47;6.53;;;;;;;11.05;100.00;101592.56;7397098;19;20411;-53
2021/11/19 10:47:33;;;;;;;15.17;7.50;;;;;;;11.15;100.00;101590.44;7396232;19;20900;-45
2021/11/19 10:50:32;;;;;;;22.07;8.40;;;;;;;11.12;100.00;101574.78;7394956;19;20474;-45
2021/11/19 10:53:39;;;;;;;13.70;6.30;;;;;;;11.08;100.00;101572.03;7396781;19;20444;-49
2021/11/19 10:56:24;;;;;;;12.90;6.47;;;;;;;11.12;100.00;101583.41;7396357;19;20422;-48
2021/11/19 10:58:56;;;;;;;45.00;15.23;;;;;;;11.26;100.00;101591.00;7399601;19;20395;-44
2021/11/19 11:01:49;;;;;;;20.37;9.10;;;;;;;11.25;100.00;101589.22;7395773;19;20411;-44
2021/11/19 11:04:28;;;;;;;60.87;17.77;;;;;;;11.24;100.00;101592.63;7396721;19;20411;-45
2021/11/19 11:07:12;;;;;;;42.73;17.90;;;;;;;11.31;100.00;101590.44;7395213;19;20906;-44
2021/11/19 11:09:49;;;;;;;41.13;18.43;;;;;;;11.37;100.00;101589.88;7397233;19;20399;-45
2021/11/19 11:12:32;;;;;;;65.57;25.27;;;;;;;11.41;100.00;101586.63;7395922;19;20415;-43
2021/11/19 11:15:27;;;;;;;16.20;8.07;;;;;;;11.36;100.00;101567.44;7401009;19;20664;-45
2021/11/19 11:18:05;;;;;;;35.17;15.60;;;;;;;11.43;100.00;101579.84;7400557;19;20443;-44
2021/11/19 11:20:36;;;;;;;21.93;8.17;;;;;;;11.44;100.00;101570.41;7396902;19;20459;-43
2021/11/19 11:23:25;;;;;;;16.67;6.57;;;;;;;11.41;100.00;101581.47;7403059;19;20436;-43
2021/11/19 11:26:05;;;;;;;28.13;11.30;;;;;;;11.50;100.00;101569.81;7404471;19;20392;-45
2021/11/19 11:28:42;;;;;;;19.70;8.23;;;;;;;11.48;100.00;101575.81;7401362;19;20487;-46
2021/11/19 11:31:35;;;;;;;22.20;6.83;;;;;;;11.53;100.00;101585.50;7404329;19;20443;-43
2021/11/19 11:34:17;;;;;;;18.97;4.97;;;;;;;11.54;100.00;101579.53;7402145;19;20481;-45
2021/11/19 11:36:50;;;;;;;23.47;10.47;;;;;;;11.48;100.00;101596.47;7405523;19;20439;-48
2021/11/19 11:39:23;;;;;;;14.20;5.17;;;;;;;11.46;100.00;101579.13;7402154;19;20602;-44